Time;durP1;ratioP1;P1;durP2;ratioP2;P2;SDS_P1;SDS_P2;PMS_P1;PMS_P2;Temp;Humidity;BMP_temperature;BMP_pressure;BME280_temperature;BME280_humidity;BME280_pressure;Samples;Min_cycle;Max_cycle;Signal;HPM_P1;HPM_P2
2022/04/06 00:00:10;;;;;;;21.47;4.47;;;10.30;99.90;;;;;;5094500;28;20287;-81
2022/04/06 00:02:39;;;;;;;18.83;3.63;;;10.30;99.90;;;;;;5093934;28;20633;-79
2022/04/06 00:05:09;;;;;;;14.17;4.13;;;10.30;99.90;;;;;;5093637;28;20651;-80
2022/04/06 00:07:37;;;;;;;15.67;4.10;;;10.30;99.90;;;;;;5093624;28;20228;-78
2022/04/06 00:10:04;;;;;;;18.83;3.93;;;10.30;99.90;;;;;;5094414;28;20189;-78
2022/04/06 00:12:31;;;;;;;18.52;5.28;;;10.30;99.90;;;;;;5094081;28;20430;-79
2022/04/06 00:14:58;;;;;;;16.40;4.57;;;10.30;99.90;;;;;;5094213;28;20205;-79
2022/04/06 00:17:25;;;;;;;16.77;4.17;;;10.40;99.90;;;;;;5093752;28;20225;-78
2022/04/06 00:19:53;;;;;;;17.30;3.80;;;10.40;99.90;;;;;;5093589;28;20196;-79
2022/04/06 00:22:20;;;;;;;13.40;3.30;;;10.30;99.90;;;;;;5094590;28;20240;-78
2022/04/06 00:24:48;;;;;;;19.40;3.43;;;10.30;99.90;;;;;;5094063;28;20201;-79
2022/04/06 00:27:15;;;;;;;15.60;3.43;;;10.30;99.90;;;;;;5093690;28;20200;-78
2022/04/06 00:29:42;;;;;;;11.13;3.60;;;10.30;99.90;;;;;;5094078;28;20255;-79
2022/04/06 00:32:09;;;;;;;10.87;3.67;;;10.30;99.90;;;;;;5094110;28;20197;-77
2022/04/06 00:37:21;;;;;;;17.77;3.00;;;10.30;99.90;;;;;;5094137;28;20224;-79
2022/04/06 00:39:48;;;;;;;12.53;2.80;;;10.40;99.90;;;;;;5093899;28;20190;-79
2022/04/06 00:42:15;;;;;;;17.33;3.67;;;10.40;99.90;;;;;;5093315;28;20667;-77
2022/04/06 00:44:42;;;;;;;13.30;3.13;;;10.40;99.90;;;;;;5093507;28;20201;-78
2022/04/06 00:47:09;;;;;;;12.70;3.30;;;10.40;99.90;;;;;;5093275;28;20690;-79
2022/04/06 00:49:36;;;;;;;10.53;2.50;;;10.50;99.90;;;;;;5093850;28;20189;-79
2022/04/06 00:52:05;;;;;;;12.77;3.10;;;10.40;99.90;;;;;;5093853;28;20208;-80
2022/04/06 00:54:34;;;;;;;14.77;3.13;;;10.40;99.90;;;;;;5093715;28;20195;-79
2022/04/06 00:57:01;;;;;;;11.27;2.50;;;10.40;99.90;;;;;;5093529;28;20260;-79
2022/04/06 00:59:30;;;;;;;11.40;3.20;;;10.40;99.90;;;;;;5093146;28;20667;-79
2022/04/06 01:01:58;;;;;;;17.10;2.87;;;10.40;99.90;;;;;;5093196;28;20209;-77
2022/04/06 01:04:26;;;;;;;12.83;2.90;;;10.40;99.90;;;;;;5093490;28;20208;-79
2022/04/06 01:06:54;;;;;;;15.93;3.00;;;10.40;99.90;;;;;;5093055;28;20660;-79
2022/04/06 01:09:22;;;;;;;13.07;3.53;;;10.40;99.90;;;;;;5094919;28;20205;-77
2022/04/06 01:11:52;;;;;;;13.83;4.10;;;10.40;99.90;;;;;;5091330;28;20197;-79
2022/04/06 01:14:20;;;;;;;9.97;3.00;;;10.40;99.90;;;;;;5090992;28;20220;-78
2022/04/06 01:16:57;;;;;;;12.60;3.40;;;10.40;99.90;;;;;;5091844;28;20274;-79
2022/04/06 01:19:24;;;;;;;12.93;3.10;;;10.40;99.90;;;;;;5092687;28;20306;-79
2022/04/06 01:21:51;;;;;;;12.27;3.53;;;10.40;99.90;;;;;;5092869;28;20212;-79
2022/04/06 01:24:20;;;;;;;14.07;2.90;;;10.30;99.90;;;;;;5092949;28;20201;-79
2022/04/06 01:26:48;;;;;;;18.30;4.28;;;10.30;99.90;;;;;;5092049;28;20438;-79
2022/04/06 01:29:14;;;;;;;13.10;3.93;;;10.40;99.90;;;;;;5092648;28;20225;-82
2022/04/06 01:31:41;;;;;;;16.97;4.00;;;10.50;99.90;;;;;;5092707;28;20196;-80
2022/04/06 01:34:08;;;;;;;14.17;3.00;;;10.50;99.90;;;;;;5093010;28;20201;-81
2022/04/06 01:36:35;;;;;;;15.60;3.47;;;10.40;99.90;;;;;;5092923;28;20228;-81
2022/04/06 01:39:02;;;;;;;9.10;3.03;;;10.40;99.90;;;;;;5092603;28;20202;-82
2022/04/06 01:41:33;;;;;;;17.40;3.77;;;10.40;99.90;;;;;;5092574;28;20208;-81
2022/04/06 01:43:59;;;;;;;16.97;3.43;;;10.40;99.90;;;;;;5092784;28;20190;-78
2022/04/06 01:46:26;;;;;;;17.87;4.07;;;10.40;99.90;;;;;;5095184;28;20213;-80
2022/04/06 01:54:24;;;;;;;14.77;4.00;;;10.40;99.90;;;;;;5096653;28;20248;-79
2022/04/06 01:56:52;;;;;;;21.13;3.83;;;10.30;99.90;;;;;;5096214;28;20221;-78
2022/04/06 01:59:19;;;;;;;23.50;4.43;;;10.30;99.90;;;;;;5094995;28;20543;-81
2022/04/06 02:01:54;;;;;;;21.50;4.83;;;10.30;99.90;;;;;;5095955;28;20205;-79
2022/04/06 02:04:22;;;;;;;13.67;4.40;;;10.30;99.90;;;;;;5096666;28;20577;-81
2022/04/06 02:06:49;;;;;;;18.73;4.47;;;10.30;99.90;;;;;;5096133;28;20211;-80
2022/04/06 02:09:16;;;;;;;16.93;4.30;;;10.40;99.90;;;;;;5096076;28;20201;-79
2022/04/06 02:11:45;;;;;;;21.33;5.30;;;10.30;99.90;;;;;;5096611;28;20186;-81
2022/04/06 02:14:17;;;;;;;22.93;4.90;;;10.20;99.90;;;;;;5096716;28;20200;-78
2022/04/06 02:16:45;;;;;;;16.33;4.13;;;10.20;99.90;;;;;;5096013;28;20236;-80
2022/04/06 02:19:11;;;;;;;18.33;4.90;;;10.20;99.90;;;;;;5096434;28;20201;-80
2022/04/06 02:21:38;;;;;;;22.90;5.73;;;10.30;99.90;;;;;;5096109;28;20190;-78
2022/04/06 02:24:05;;;;;;;24.13;5.60;;;10.20;99.90;;;;;;5096221;28;20205;-80
2022/04/06 02:26:32;;;;;;;20.47;5.40;;;10.10;99.90;;;;;;5096128;28;20558;-79
2022/04/06 02:29:00;;;;;;;18.33;4.93;;;10.20;99.90;;;;;;5095779;28;20225;-79
2022/04/06 02:31:29;;;;;;;17.33;4.90;;;10.10;99.90;;;;;;5095500;28;20668;-78
2022/04/06 02:33:55;;;;;;;23.17;5.33;;;10.10;99.90;;;;;;5095930;28;20307;-79
2022/04/06 02:36:22;;;;;;;17.13;6.13;;;10.10;99.90;;;;;;5096349;28;20190;-79
2022/04/06 02:38:50;;;;;;;18.67;4.60;;;10.10;99.90;;;;;;5095764;28;20675;-80
2022/04/06 02:41:17;;;;;;;19.63;5.90;;;10.10;99.90;;;;;;5096092;28;20216;-81
2022/04/06 02:43:44;;;;;;;21.20;5.63;;;10.20;99.90;;;;;;5095582;28;20205;-80
2022/04/06 02:46:11;;;;;;;26.07;5.47;;;10.10;99.90;;;;;;5095424;28;20212;-79
2022/04/06 02:48:39;;;;;;;16.57;4.90;;;10.20;99.90;;;;;;5095651;28;20208;-80
2022/04/06 02:51:06;;;;;;;14.60;5.03;;;10.10;99.90;;;;;;5095895;28;20209;-79
2022/04/06 02:53:33;;;;;;;23.47;5.80;;;10.00;99.90;;;;;;5095495;28;20205;-79
2022/04/06 02:55:59;;;;;;;19.70;4.87;;;10.00;99.90;;;;;;5094841;28;20203;-79
2022/04/06 02:58:26;;;;;;;17.77;5.40;;;10.10;99.90;;;;;;5094018;28;20247;-80
2022/04/06 03:00:56;;;;;;;18.63;4.83;;;10.20;99.90;;;;;;5094872;28;20208;-80
2022/04/06 03:03:23;;;;;;;19.30;5.82;;;10.10;99.90;;;;;;5095073;28;20430;-79
2022/04/06 03:05:51;;;;;;;20.77;4.97;;;10.20;99.90;;;;;;5095130;28;20205;-80
2022/04/06 03:08:18;;;;;;;14.73;5.00;;;10.10;99.90;;;;;;5095532;28;20193;-79
2022/04/06 03:10:45;;;;;;;14.43;5.00;;;10.10;99.90;;;;;;5095441;28;20676;-78
2022/04/06 03:13:12;;;;;;;18.97;4.77;;;10.00;99.90;;;;;;5095959;28;20209;-80
2022/04/06 03:15:39;;;;;;;13.37;4.90;;;10.00;99.90;;;;;;5095516;28;20217;-81
2022/04/06 03:18:06;;;;;;;23.20;4.70;;;10.00;99.90;;;;;;5095640;28;20228;-80
2022/04/06 03:20:33;;;;;;;14.20;4.33;;;10.00;99.90;;;;;;5095153;28;20203;-78
2022/04/06 03:23:03;;;;;;;24.30;5.73;;;10.00;99.90;;;;;;5094802;28;20212;-78
2022/04/06 03:25:29;;;;;;;14.33;4.10;;;10.00;99.90;;;;;;5095042;28;20624;-77
2022/04/06 03:27:56;;;;;;;19.37;4.00;;;10.00;99.90;;;;;;5094495;28;20197;-80
2022/04/06 03:30:23;;;;;;;15.97;4.20;;;10.00;99.90;;;;;;5094895;28;20217;-80
2022/04/06 03:32:50;;;;;;;11.73;3.73;;;10.00;99.90;;;;;;5094507;28;20205;-78
2022/04/06 03:35:17;;;;;;;15.77;3.73;;;10.00;99.90;;;;;;5094532;28;20262;-79
2022/04/06 03:37:44;;;;;;;18.90;4.13;;;10.00;99.90;;;;;;5094502;28;20225;-78
2022/04/06 03:40:13;;;;;;;16.13;3.93;;;10.00;99.90;;;;;;5094332;28;20205;-78
2022/04/06 03:42:40;;;;;;;16.47;3.47;;;10.10;99.90;;;;;;5094454;28;20229;-78
2022/04/06 03:45:08;;;;;;;15.07;3.57;;;10.00;99.90;;;;;;5094619;28;20197;-79
2022/04/06 03:47:37;;;;;;;15.20;3.23;;;9.90;99.90;;;;;;5094367;28;20213;-79
2022/04/06 03:50:05;;;;;;;15.33;3.57;;;10.00;99.90;;;;;;5094568;28;20209;-80
2022/04/06 03:52:32;;;;;;;11.77;3.07;;;10.00;99.90;;;;;;5094215;28;20666;-80
2022/04/06 03:54:59;;;;;;;14.60;3.50;;;10.00;99.90;;;;;;5094327;28;20186;-78
2022/04/06 03:57:28;;;;;;;13.20;2.87;;;10.00;99.90;;;;;;5094154;28;20730;-78
2022/04/06 03:59:55;;;;;;;18.30;3.40;;;10.00;99.90;;;;;;5094824;28;20201;-81
2022/04/06 04:02:21;;;;;;;17.47;3.90;;;9.90;99.90;;;;;;5094477;28;20565;-82
2022/04/06 04:04:48;;;;;;;19.50;4.43;;;9.90;99.90;;;;;;5094467;28;20565;-81
2022/04/06 04:07:21;;;;;;;12.43;3.00;;;9.80;99.90;;;;;;5094362;28;20189;-81
2022/04/06 04:09:49;;;;;;;16.27;3.93;;;10.00;99.90;;;;;;5092576;28;20678;-82
2022/04/06 04:12:16;;;;;;;13.03;3.57;;;10.00;99.90;;;;;;5094010;28;20267;-79
2022/04/06 04:14:46;;;;;;;14.27;2.93;;;10.10;99.90;;;;;;5093884;28;20204;-81
2022/04/06 04:17:13;;;;;;;14.20;3.90;;;10.10;99.90;;;;;;5093937;28;20418;-82
2022/04/06 04:19:40;;;;;;;18.00;3.30;;;10.10;99.90;;;;;;5093951;28;20204;-83
2022/04/06 04:22:07;;;;;;;14.67;2.70;;;10.10;99.90;;;;;;5094302;28;20188;-80
2022/04/06 04:24:35;;;;;;;12.13;2.77;;;10.10;99.90;;;;;;5094288;28;20566;-80
2022/04/06 04:27:02;;;;;;;12.10;3.20;;;10.00;99.90;;;;;;5093763;28;20588;-81
2022/04/06 04:29:29;;;;;;;13.40;3.57;;;10.00;99.90;;;;;;5094036;28;20261;-79
2022/04/06 04:31:57;;;;;;;10.77;2.90;;;9.90;99.90;;;;;;5093673;28;20205;-79
2022/04/06 04:34:25;;;;;;;14.13;3.47;;;9.90;99.90;;;;;;5093851;28;20200;-81
2022/04/06 04:36:52;;;;;;;9.57;2.50;;;9.90;99.90;;;;;;5093373;28;20208;-79
2022/04/06 04:39:19;;;;;;;14.40;2.70;;;10.00;99.90;;;;;;5093427;28;20635;-78
2022/04/06 04:41:46;;;;;;;9.30;2.23;;;10.00;99.90;;;;;;5093513;28;20189;-78
2022/04/06 04:44:14;;;;;;;6.97;2.43;;;10.00;99.90;;;;;;5093296;28;20211;-79
2022/04/06 04:46:41;;;;;;;11.33;2.60;;;10.00;99.90;;;;;;5092692;28;20205;-78
2022/04/06 04:49:09;;;;;;;13.57;2.90;;;10.00;99.90;;;;;;5093624;28;20710;-78
2022/04/06 04:51:36;;;;;;;9.60;2.90;;;10.00;99.90;;;;;;5093249;28;20201;-80
2022/04/06 04:54:03;;;;;;;8.40;2.37;;;10.00;99.90;;;;;;5093474;28;20190;-78
2022/04/06 04:56:33;;;;;;;9.27;2.83;;;9.90;99.90;;;;;;5093119;28;20641;-79
2022/04/06 04:59:00;;;;;;;11.60;2.97;;;9.90;99.90;;;;;;5092941;28;20324;-78
2022/04/06 05:01:27;;;;;;;12.90;3.10;;;10.00;99.90;;;;;;5097988;28;20204;-79
2022/04/06 05:03:54;;;;;;;15.30;3.13;;;10.00;99.90;;;;;;5092793;28;20676;-81
2022/04/06 05:06:22;;;;;;;13.30;2.97;;;9.80;99.90;;;;;;5091104;28;20186;-79
2022/04/06 05:08:49;;;;;;;13.10;2.90;;;9.80;99.90;;;;;;5093019;28;20208;-80
2022/04/06 05:11:17;;;;;;;11.27;2.93;;;9.80;99.90;;;;;;5093031;28;20209;-80
2022/04/06 05:13:45;;;;;;;11.20;2.80;;;9.90;99.90;;;;;;5093340;28;20283;-79
2022/04/06 05:16:11;;;;;;;12.20;2.80;;;9.90;99.90;;;;;;5093251;28;20220;-78
2022/04/06 05:18:38;;;;;;;13.23;3.30;;;9.90;99.90;;;;;;5093361;28;20229;-80
2022/04/06 05:21:07;;;;;;;8.23;2.40;;;9.90;99.90;;;;;;5095715;28;20201;-79
2022/04/06 05:23:35;;;;;;;12.53;3.30;;;9.70;99.90;;;;;;5097631;28;20190;-78
2022/04/06 05:26:02;;;;;;;8.80;2.57;;;9.70;99.90;;;;;;5096750;28;20660;-79
2022/04/06 05:28:29;;;;;;;12.63;3.20;;;9.80;99.90;;;;;;5096890;28;20205;-79
2022/04/06 05:30:56;;;;;;;8.87;2.93;;;9.90;99.90;;;;;;5096800;28;20211;-79
2022/04/06 05:33:23;;;;;;;10.83;3.00;;;9.80;99.90;;;;;;5097018;28;20201;-81
2022/04/06 05:35:50;;;;;;;9.97;2.37;;;9.80;99.90;;;;;;5097285;28;20205;-80
2022/04/06 05:38:17;;;;;;;9.73;3.03;;;9.80;99.90;;;;;;5096650;28;20225;-83
2022/04/06 05:40:45;;;;;;;11.00;2.77;;;9.90;99.90;;;;;;5097321;28;20204;-80
2022/04/06 05:43:12;;;;;;;10.30;3.00;;;9.90;99.90;;;;;;5096782;28;20558;-81
2022/04/06 05:45:39;;;;;;;13.10;3.60;;;9.90;99.90;;;;;;5097086;28;20217;-82
2022/04/06 05:48:06;;;;;;;10.17;3.50;;;10.00;99.90;;;;;;5096835;28;20362;-79
2022/04/06 05:50:33;;;;;;;7.63;2.50;;;10.00;99.90;;;;;;5097142;28;20254;-83
2022/04/06 05:53:02;;;;;;;8.57;3.10;;;10.00;99.90;;;;;;5096393;28;20208;-79
2022/04/06 05:55:29;;;;;;;9.63;3.22;;;10.00;99.90;;;;;;5096538;28;20426;-78
2022/04/06 05:57:57;;;;;;;10.43;2.70;;;10.00;99.90;;;;;;5096064;28;20718;-77
2022/04/06 06:00:24;;;;;;;8.87;2.20;;;10.00;99.90;;;;;;5096792;28;20200;-79
2022/04/06 06:02:51;;;;;;;7.00;2.37;;;10.00;99.90;;;;;;5096863;28;20193;-81
2022/04/06 06:05:18;;;;;;;6.63;2.33;;;10.10;99.90;;;;;;5096711;28;20201;-79
2022/04/06 06:07:45;;;;;;;6.83;1.87;;;10.20;99.90;;;;;;5096160;28;20219;-84
2022/04/06 06:10:12;;;;;;;11.77;2.40;;;10.20;99.90;;;;;;5096743;28;20232;-83
2022/04/06 06:12:39;;;;;;;10.30;2.20;;;10.10;99.90;;;;;;5096733;28;20196;-83
2022/04/06 06:15:08;;;;;;;5.87;1.77;;;10.10;99.90;;;;;;5096443;28;20205;-83
2022/04/06 06:17:37;;;;;;;5.70;2.07;;;10.10;99.90;;;;;;5096799;28;20201;-78
2022/04/06 06:20:05;;;;;;;7.13;2.37;;;10.00;99.90;;;;;;5096216;28;20449;-79
2022/04/06 06:22:32;;;;;;;5.47;1.60;;;10.00;99.90;;;;;;5096932;28;20456;-82
2022/04/06 06:24:59;;;;;;;9.33;2.00;;;10.00;99.90;;;;;;5096704;28;20208;-82
2022/04/06 06:27:27;;;;;;;8.20;1.93;;;10.00;99.90;;;;;;5096833;28;20189;-85
2022/04/06 06:29:54;;;;;;;11.23;2.10;;;10.00;99.90;;;;;;5097196;28;20696;-81
2022/04/06 06:32:22;;;;;;;6.53;2.97;;;10.00;99.90;;;;;;5095910;28;20190;-83
2022/04/06 06:34:50;;;;;;;8.40;2.23;;;10.00;99.90;;;;;;5096372;28;20204;-80
2022/04/06 06:37:17;;;;;;;8.53;2.43;;;10.20;99.90;;;;;;5098262;28;20211;-84
2022/04/06 06:39:44;;;;;;;10.23;2.23;;;10.10;99.90;;;;;;5106727;28;20220;-78
2022/04/06 06:42:11;;;;;;;11.43;2.30;;;10.10;99.90;;;;;;5107468;28;20188;-78
2022/04/06 06:44:39;;;;;;;7.43;2.50;;;10.10;99.90;;;;;;5109883;28;20846;-81
2022/04/06 06:47:06;;;;;;;6.13;2.10;;;10.10;99.90;;;;;;5116287;28;20216;-83
2022/04/06 06:49:34;;;;;;;9.73;2.17;;;10.10;99.90;;;;;;5116507;28;20196;-84
2022/04/06 06:52:01;;;;;;;9.17;2.67;;;10.00;99.90;;;;;;5115796;28;20204;-85
2022/04/06 06:54:27;;;;;;;8.97;2.00;;;10.00;99.90;;;;;;5114912;28;20201;-78
2022/04/06 06:56:54;;;;;;;9.03;2.23;;;10.10;99.90;;;;;;5109504;28;20188;-84
2022/04/06 06:59:21;;;;;;;8.10;2.40;;;10.10;99.90;;;;;;5116577;28;20231;-86
2022/04/06 07:01:49;;;;;;;6.90;2.27;;;10.20;99.90;;;;;;5116441;28;20227;-82
2022/04/06 07:04:21;;;;;;;7.07;2.50;;;10.20;99.90;;;;;;5116474;28;20193;-84
2022/04/06 07:06:50;;;;;;;5.97;2.23;;;10.20;99.90;;;;;;5115960;28;20655;-82
2022/04/06 07:09:19;;;;;;;8.33;2.67;;;10.00;99.90;;;;;;5109577;28;20422;-85
2022/04/06 07:11:46;;;;;;;6.47;2.33;;;10.00;99.90;;;;;;5095958;28;20434;-79
2022/04/06 07:14:18;;;;;;;11.83;2.53;;;10.10;99.90;;;;;;5108336;28;20218;-84
2022/04/06 07:16:45;;;;;;;7.23;2.40;;;10.10;99.90;;;;;;5117839;28;20188;-83
2022/04/06 07:19:13;;;;;;;8.33;2.30;;;10.10;99.90;;;;;;5095333;28;20225;-80
2022/04/06 07:21:40;;;;;;;7.93;2.33;;;10.20;99.90;;;;;;5095590;28;20238;-84
2022/04/06 07:24:08;;;;;;;12.03;2.10;;;10.20;99.90;;;;;;5095565;28;20201;-83
2022/04/06 07:26:35;;;;;;;9.07;2.20;;;10.30;99.90;;;;;;5095148;28;20208;-81
2022/04/06 07:29:03;;;;;;;5.47;2.00;;;10.40;99.90;;;;;;5094966;28;20225;-84
2022/04/06 07:31:31;;;;;;;12.90;1.97;;;10.40;99.90;;;;;;5095187;28;20660;-80
2022/04/06 07:34:01;;;;;;;9.88;2.65;;;10.50;99.90;;;;;;5094672;28;20434;-82
2022/04/06 07:36:28;;;;;;;9.70;2.67;;;10.50;99.90;;;;;;5095235;28;20276;-81
2022/04/06 07:38:55;;;;;;;9.63;2.40;;;10.60;99.90;;;;;;5094993;28;20680;-83
2022/04/06 07:41:24;;;;;;;5.80;1.83;;;10.40;99.90;;;;;;5095082;28;20217;-78
2022/04/06 07:43:51;;;;;;;14.07;2.50;;;10.30;99.90;;;;;;5095622;28;20186;-78
2022/04/06 07:46:19;;;;;;;6.63;2.13;;;10.30;99.90;;;;;;5094242;28;20295;-80
2022/04/06 07:48:46;;;;;;;4.80;1.70;;;10.40;99.90;;;;;;5094587;28;20201;-78
2022/04/06 07:51:13;;;;;;;7.05;2.15;;;10.50;99.90;;;;;;5094077;28;20422;-81
2022/04/06 07:53:39;;;;;;;8.60;1.90;;;10.50;99.90;;;;;;5095752;28;20201;-77
2022/04/06 07:56:07;;;;;;;5.20;1.40;;;10.50;99.90;;;;;;5094825;28;20192;-79
2022/04/06 07:58:35;;;;;;;8.10;1.80;;;10.40;99.90;;;;;;5094618;28;20750;-85
2022/04/06 08:01:02;;;;;;;6.17;1.90;;;10.40;99.90;;;;;;5093746;28;20220;-78
2022/04/06 08:03:29;;;;;;;6.23;1.73;;;10.30;99.90;;;;;;5094204;28;20699;-79
2022/04/06 08:05:57;;;;;;;6.65;2.05;;;10.30;99.90;;;;;;5094576;28;20428;-80
2022/04/06 08:08:24;;;;;;;8.97;2.27;;;10.30;99.90;;;;;;5093925;28;20232;-78
2022/04/06 08:10:51;;;;;;;5.97;2.07;;;10.40;99.90;;;;;;5093997;28;20193;-79
2022/04/06 08:13:17;;;;;;;10.80;2.17;;;10.50;99.90;;;;;;5094495;28;20201;-80
2022/04/06 08:15:47;;;;;;;11.60;2.07;;;10.50;99.90;;;;;;5094082;28;20202;-79
2022/04/06 08:18:14;;;;;;;14.53;3.93;;;10.60;99.90;;;;;;5094261;28;20201;-77
2022/04/06 08:20:40;;;;;;;5.53;2.20;;;10.60;99.90;;;;;;5093906;28;20634;-77
2022/04/06 08:23:07;;;;;;;7.53;2.80;;;10.80;99.90;;;;;;5094280;28;20189;-78
2022/04/06 08:25:34;;;;;;;6.57;2.57;;;10.70;99.90;;;;;;5094449;28;20202;-78
2022/04/06 08:28:01;;;;;;;9.67;3.13;;;10.70;99.90;;;;;;5093396;28;20201;-81
2022/04/06 08:30:28;;;;;;;11.50;5.17;;;10.80;99.90;;;;;;5093220;28;20224;-75
2022/04/06 08:32:58;;;;;;;9.87;2.73;;;10.80;99.90;;;;;;5093291;28;20193;-85
2022/04/06 08:35:26;;;;;;;5.80;1.83;;;10.90;99.90;;;;;;5092983;28;20212;-77
2022/04/06 08:37:53;;;;;;;7.93;2.40;;;10.90;99.90;;;;;;5092950;28;20197;-75
2022/04/06 08:40:21;;;;;;;7.27;2.23;;;10.80;99.90;;;;;;5092932;28;20225;-80
2022/04/06 08:42:49;;;;;;;6.77;1.83;;;10.80;99.90;;;;;;5099627;28;20205;-82
2022/04/06 08:45:17;;;;;;;4.87;1.77;;;10.90;99.90;;;;;;5104476;28;20214;-80
2022/04/06 08:47:47;;;;;;;7.97;2.23;;;11.10;99.90;;;;;;5105395;28;20228;-76
2022/04/06 08:50:19;;;;;;;4.70;1.70;;;11.10;99.90;;;;;;5105648;28;20189;-82
2022/04/06 08:52:48;;;;;;;6.03;1.90;;;11.20;99.90;;;;;;5107128;28;20192;-75
2022/04/06 08:55:15;;;;;;;6.40;2.17;;;11.20;99.90;;;;;;5103537;28;20203;-75
2022/04/06 08:57:42;;;;;;;6.00;1.90;;;11.20;99.90;;;;;;5101839;28;20197;-76
2022/04/06 09:00:15;;;;;;;7.53;1.93;;;11.20;99.90;;;;;;5099254;28;20232;-81
2022/04/06 09:02:42;;;;;;;10.53;1.73;;;11.20;99.90;;;;;;5102664;28;20631;-77
2022/04/06 09:05:11;;;;;;;3.80;1.97;;;11.30;99.90;;;;;;5101295;28;20200;-83
2022/04/06 09:07:40;;;;;;;6.18;2.10;;;11.30;99.90;;;;;;5097975;28;20431;-82
2022/04/06 09:10:08;;;;;;;7.27;1.70;;;11.50;99.90;;;;;;5099176;28;20193;-76
2022/04/06 09:12:35;;;;;;;4.33;1.90;;;11.40;99.90;;;;;;5101701;28;20199;-77
2022/04/06 09:15:10;;;;;;;8.53;3.70;;;11.70;99.90;;;;;;5104320;28;20663;-75
2022/04/06 09:17:45;;;;;;;2.83;1.57;;;11.80;99.90;;;;;;5106570;28;20200;-77
2022/04/06 09:20:13;;;;;;;3.60;1.27;;;11.70;99.90;;;;;;5113053;28;20223;-77
2022/04/06 09:22:41;;;;;;;3.93;1.43;;;11.80;99.90;;;;;;5113362;28;20223;-80
2022/04/06 09:25:10;;;;;;;7.20;2.37;;;11.70;99.90;;;;;;5113627;28;20764;-77
2022/04/06 09:27:40;;;;;;;9.27;2.03;;;11.60;99.90;;;;;;5113269;28;20259;-76
2022/04/06 09:30:09;;;;;;;6.23;2.33;;;11.70;99.90;;;;;;5111700;28;20834;-77
2022/04/06 09:32:37;;;;;;;4.10;1.87;;;11.90;99.90;;;;;;5109187;28;20493;-78
2022/04/06 09:35:23;;;;;;;3.73;1.67;;;12.00;99.90;;;;;;5097831;28;20195;-80
2022/04/06 09:38:08;;;;;;;2.50;1.70;;;11.90;99.90;;;;;;5092374;28;20749;-78
2022/04/06 09:40:35;;;;;;;4.07;1.93;;;11.90;99.90;;;;;;5092506;28;20222;-76
2022/04/06 09:43:01;;;;;;;9.53;1.83;;;12.00;99.90;;;;;;5105835;28;20194;-78
2022/04/06 09:48:13;;;;;;;3.83;1.90;;;11.80;99.90;;;;;;5101773;28;20227;-75
2022/04/06 09:50:42;;;;;;;11.88;5.78;;;12.00;99.90;;;;;;5101510;28;20426;-74
2022/04/06 09:53:11;;;;;;;7.90;1.73;;;12.00;99.90;;;;;;5104343;28;20236;-75
2022/04/06 09:55:39;;;;;;;3.50;1.63;;;12.00;99.90;;;;;;5097955;28;20638;-75
2022/04/06 09:58:06;;;;;;;8.30;2.13;;;11.90;99.90;;;;;;5102866;28;20204;-76
2022/04/06 10:00:34;;;;;;;5.30;2.07;;;11.80;99.90;;;;;;5109774;28;20217;-75
2022/04/06 10:03:05;;;;;;;6.83;2.23;;;11.80;99.90;;;;;;5113128;28;20250;-75
2022/04/06 10:05:33;;;;;;;7.50;2.07;;;11.60;99.90;;;;;;5113311;28;20196;-76
2022/04/06 10:08:01;;;;;;;8.33;2.00;;;11.50;99.90;;;;;;5116300;28;20231;-76
2022/04/06 10:10:29;;;;;;;4.97;2.17;;;11.40;99.90;;;;;;5117065;28;20189;-76
2022/04/06 10:12:58;;;;;;;5.47;2.50;;;11.20;99.90;;;;;;5116151;28;20413;-75
2022/04/06 10:15:25;;;;;;;6.40;2.63;;;11.30;99.90;;;;;;5116286;28;20212;-75
2022/04/06 10:17:52;;;;;;;5.93;2.57;;;11.30;99.90;;;;;;5110878;28;20589;-80
2022/04/06 10:20:26;;;;;;;3.13;2.30;;;11.40;99.90;;;;;;5104395;28;20527;-80
2022/04/06 10:23:05;;;;;;;5.30;2.57;;;11.40;99.90;;;;;;5105172;28;20649;-82
2022/04/06 10:25:48;;;;;;;4.87;3.27;;;11.40;99.90;;;;;;5104471;28;20551;-80
2022/04/06 10:28:17;;;;;;;5.23;2.40;;;11.30;99.90;;;;;;5109567;28;20282;-82
2022/04/06 10:31:16;;;;;;;5.87;2.67;;;11.40;99.90;;;;;;5109236;28;20220;-82
2022/04/06 10:33:45;;;;;;;6.07;2.17;;;11.50;99.90;;;;;;5111947;28;20198;-82
2022/04/06 10:36:21;;;;;;;8.67;2.77;;;11.60;99.90;;;;;;5099570;28;20202;-83
2022/04/06 10:39:16;;;;;;;5.77;2.60;;;11.50;99.90;;;;;;5097447;28;20201;-89
2022/04/06 10:42:14;;;;;;;9.63;2.40;;;11.30;99.90;;;;;;5106534;28;20212;-83
2022/04/06 10:44:44;;;;;;;7.53;2.30;;;11.40;99.90;;;;;;5116397;28;20201;-83
2022/04/06 10:47:14;;;;;;;4.10;2.50;;;11.30;99.90;;;;;;5117351;27;20265;-84
2022/04/06 10:49:42;;;;;;;5.70;2.20;;;11.40;99.90;;;;;;5117075;28;20201;-83
2022/04/06 10:52:26;;;;;;;5.80;2.97;;;11.20;99.90;;;;;;5117446;28;20200;-87
2022/04/06 10:54:57;;;;;;;4.17;2.70;;;11.20;99.90;;;;;;5118599;28;20207;-86
2022/04/06 10:57:58;;;;;;;4.53;2.67;;;11.30;99.90;;;;;;5118245;28;20188;-87
2022/04/06 11:00:34;;;;;;;5.47;3.07;;;11.40;99.90;;;;;;5118852;28;20516;-87
2022/04/06 11:03:15;;;;;;;10.07;3.20;;;11.60;99.90;;;;;;5122064;28;20204;-86
2022/04/06 11:05:49;;;;;;;7.13;3.50;;;11.60;99.90;;;;;;5119639;28;20636;-76
2022/04/06 11:11:45;;;;;;;4.37;2.30;;;11.70;99.90;;;;;;5115693;28;20200;-78
2022/04/06 11:14:27;;;;;;;5.13;2.40;;;11.50;99.90;;;;;;5115374;28;20193;-78
2022/04/06 11:16:54;;;;;;;6.63;2.70;;;11.70;99.90;;;;;;5115761;28;20186;-85
2022/04/06 11:19:24;;;;;;;6.07;2.60;;;11.70;99.90;;;;;;5115814;28;20208;-84
2022/04/06 11:21:54;;;;;;;6.13;2.57;;;11.60;99.90;;;;;;5116698;28;20216;-84
2022/04/06 11:24:24;;;;;;;9.23;2.30;;;11.40;99.90;;;;;;5116773;28;20196;-84
2022/04/06 11:26:54;;;;;;;6.40;2.07;;;11.60;99.90;;;;;;5116075;28;20196;-84
2022/04/06 11:29:26;;;;;;;5.33;2.10;;;11.60;99.90;;;;;;5115874;28;20232;-76
2022/04/06 11:31:58;;;;;;;7.37;2.47;;;11.50;99.90;;;;;;5115241;28;20224;-76
2022/04/06 11:34:32;;;;;;;5.17;2.30;;;11.60;99.90;;;;;;5115470;28;20193;-78
2022/04/06 11:36:59;;;;;;;8.97;2.10;;;11.70;99.90;;;;;;5115165;28;20212;-76
2022/04/06 11:39:28;;;;;;;5.20;2.10;;;11.80;99.90;;;;;;5114948;28;20204;-76
2022/04/06 11:41:55;;;;;;;7.20;2.20;;;11.70;99.90;;;;;;5114937;28;20204;-78
2022/04/06 11:44:24;;;;;;;5.30;2.10;;;11.80;99.90;;;;;;5111718;28;20192;-83
2022/04/06 11:46:52;;;;;;;5.03;2.50;;;11.80;99.90;;;;;;5114426;28;20428;-79
2022/04/06 11:49:24;;;;;;;4.53;2.17;;;11.90;99.90;;;;;;5115513;28;20224;-78
2022/04/06 11:51:52;;;;;;;6.87;2.23;;;12.10;99.90;;;;;;5114995;28;20289;-76
2022/04/06 11:54:20;;;;;;;4.03;1.90;;;12.10;99.90;;;;;;5114966;27;20727;-86
2022/04/06 11:56:51;;;;;;;5.40;2.10;;;12.10;99.90;;;;;;5114749;28;20201;-86
2022/04/06 11:59:19;;;;;;;5.17;2.23;;;12.20;99.90;;;;;;5115248;28;20267;-80
2022/04/06 12:01:51;;;;;;;5.60;2.10;;;12.10;99.90;;;;;;5114492;28;20236;-85
2022/04/06 12:04:21;;;;;;;3.97;2.40;;;12.00;99.90;;;;;;5097782;28;20251;-76
2022/04/06 12:06:48;;;;;;;5.80;2.20;;;11.80;99.90;;;;;;5094685;28;20204;-87
2022/04/06 12:09:16;;;;;;;6.20;2.70;;;11.90;99.90;;;;;;5094388;28;20433;-79
2022/04/06 12:11:42;;;;;;;6.20;2.20;;;11.80;99.90;;;;;;5093730;28;20209;-79
2022/04/06 12:14:11;;;;;;;2.63;1.97;;;11.80;99.90;;;;;;5094058;28;20205;-79
2022/04/06 12:16:39;;;;;;;5.00;2.50;;;11.80;99.90;;;;;;5093696;28;20190;-79
2022/04/06 12:19:13;;;;;;;6.07;2.40;;;11.80;99.90;;;;;;5093949;28;20219;-77
2022/04/06 12:21:44;;;;;;;2.33;1.97;;;11.80;99.90;;;;;;5093566;28;20276;-80
2022/04/06 12:24:11;;;;;;;2.80;2.33;;;11.80;99.90;;;;;;5093946;28;20663;-78
2022/04/06 12:26:45;;;;;;;3.67;2.07;;;11.80;99.90;;;;;;5093640;28;20231;-77
2022/04/06 12:29:16;;;;;;;2.83;2.10;;;11.70;99.90;;;;;;5093785;28;20224;-78
2022/04/06 12:31:45;;;;;;;5.63;3.07;;;11.60;99.90;;;;;;5093194;28;20194;-77
2022/04/06 12:39:57;;;;;;;5.77;2.30;;;11.60;99.90;;;;;;5151994;27;20302;-79
2022/04/06 12:42:24;;;;;;;3.10;2.07;;;11.70;99.90;;;;;;5152078;27;20191;-78
2022/04/06 12:45:00;;;;;;;6.70;2.80;;;11.70;99.90;;;;;;5152398;27;20234;-77
2022/04/06 12:47:28;;;;;;;2.60;1.90;;;11.80;99.90;;;;;;5152110;27;20626;-79
2022/04/06 12:50:15;;;;;;;4.37;2.53;;;11.80;99.90;;;;;;5151279;27;20659;-78
2022/04/06 12:52:47;;;;;;;3.63;2.00;;;11.90;99.90;;;;;;5139896;27;20200;-78
2022/04/06 12:55:16;;;;;;;2.70;2.47;;;11.90;99.90;;;;;;5142068;27;20686;-78
2022/04/06 12:57:44;;;;;;;6.13;2.30;;;12.00;99.90;;;;;;5138135;27;20202;-79
2022/04/06 13:00:13;;;;;;;2.50;2.30;;;12.00;99.90;;;;;;5135005;27;20203;-78
2022/04/06 13:02:50;;;;;;;3.93;2.10;;;12.00;99.90;;;;;;5150968;27;20237;-78
2022/04/06 13:05:18;;;;;;;4.87;2.70;;;12.00;99.90;;;;;;5144877;27;20640;-78
2022/04/06 13:07:48;;;;;;;5.30;2.37;;;11.80;99.90;;;;;;5140407;27;20669;-78
2022/04/06 13:10:15;;;;;;;3.00;2.60;;;11.80;99.90;;;;;;5150876;27;20198;-79